VQPR

Details ICAO VQPR (PBH)
Name PARO
Region Bhutan
Timezone Asia/Thimphu (UTC+6.0)
Plans Departing 166
Arriving 340
Stats Elevation 7,332 ft / 2,235 m (AMSL)
Location 27.403190° 89.424605°
Runways 1
Magnetic Variation 0.143° E
Sunrise 2018-05-23 23:11:15 UTC / 2018-05-24 05:11:15 Local
Sunset 2018-05-24 12:49:51 UTC / 2018-05-24 18:49:51 Local
Advertisement - Login to hide

Runways

ID Width Length Bearing (true) Bearing (mag) Surface Threshold Offset Overrun Length
15 95 ft / 29 m 6,462 ft / 1,970 m 150.65° 150.51° Asphalt 0 ft / 0 m 390 ft / 119 m
33 95 ft / 29 m 6,462 ft / 1,970 m 330.65° 330.51° Asphalt 0 ft / 0 m 217 ft / 66 m

Map

Weather


0- 5 10 15 20 25 30 35+ Temperature / ° C

Clouds and Precipitation
Forecast for 2018-05-24 06:00 UTC. Updated 3 hours ago

Ground ~20,000 ft ~40,000 ft Winds

METAR

VQPR 240830Z 15003KT 6000 FEW007 SCT020 BKN090 22/11 Q1016

TAF

Not found

Frequencies

Tower 118.80 MHz Paro Tower
Tower 122.70 MHz Paro Tower
Tower 120.30 MHz Paro Tower
Warning: Do not use this data for real-world aviation or navigation. No guarantee of current accuracy is given.